Time;durP1;ratioP1;P1;durP2;ratioP2;P2;SDS_P1;SDS_P2;PMS_P1;PMS_P2;Temp;Humidity;BMP_temperature;BMP_pressure;BME280_temperature;BME280_humidity;BME280_pressure;Samples;Min_cycle;Max_cycle;Signal;HPM_P1;HPM_P2
2023/11/30 00:01:49;;;;;;;1999.90;999.90;;;;;;;;;;5059235;28;20040;-86
2023/11/30 00:04:16;;;;;;;1999.90;999.90;;;;;;;;;;5056920;28;20055;-86
2023/11/30 00:06:42;;;;;;;1999.90;999.90;;;;;;;;;;5056122;28;20061;-86
2023/11/30 00:09:09;;;;;;;1999.90;999.90;;;;;;;;;;5055265;28;20539;-86
2023/11/30 00:11:35;;;;;;;1999.90;999.90;;;;;;;;;;5057482;28;20059;-84
2023/11/30 00:14:02;;;;;;;1999.90;999.90;;;;;;;;;;5063163;28;20055;-86
2023/11/30 00:16:29;;;;;;;1999.90;999.90;;;;;;;;;;5053606;28;20555;-85
2023/11/30 00:18:57;;;;;;;1999.90;999.90;;;;;;;;;;5055433;28;20052;-86
2023/11/30 00:21:23;;;;;;;1999.90;999.90;;;;;;;;;;5058581;28;20063;-85
2023/11/30 00:23:50;;;;;;;1999.90;999.90;;;;;;;;;;5060072;28;20048;-85
2023/11/30 00:26:16;;;;;;;1999.90;999.90;;;;;;;;;;5056511;28;20135;-86
2023/11/30 00:28:43;;;;;;;1999.90;999.90;;;;;;;;;;5056825;28;20049;-85
2023/11/30 00:31:09;;;;;;;1999.90;999.90;;;;;;;;;;5059193;28;20088;-85
2023/11/30 00:33:36;;;;;;;1999.90;999.90;;;;;;;;;;5054279;28;20049;-85
2023/11/30 00:36:07;;;;;;;1999.90;999.90;;;;;;;;;;5063841;28;20052;-85
2023/11/30 00:38:33;;;;;;;1999.90;999.90;;;;;;;;;;5059051;28;20052;-86
2023/11/30 00:41:00;;;;;;;1999.90;999.90;;;;;;;;;;5057130;28;20397;-85
2023/11/30 00:43:26;;;;;;;1999.90;999.90;;;;;;;;;;5057492;28;20040;-88
2023/11/30 00:45:53;;;;;;;1999.90;999.90;;;;;;;;;;5059985;28;20067;-85
2023/11/30 00:48:19;;;;;;;1999.90;999.90;;;;;;;;;;5060957;28;20049;-85
2023/11/30 00:50:46;;;;;;;1999.90;999.90;;;;;;;;;;5052900;28;20404;-85
2023/11/30 00:53:13;;;;;;;1999.90;999.90;;;;;;;;;;5056921;28;20053;-85
2023/11/30 00:55:40;;;;;;;1999.90;999.90;;;;;;;;;;5059959;28;20052;-85
2023/11/30 00:58:06;;;;;;;1999.90;999.90;;;;;;;;;;5060100;28;20048;-85
2023/11/30 01:00:33;;;;;;;1999.90;999.90;;;;;;;;;;5057645;28;20052;-85
2023/11/30 01:02:59;;;;;;;1999.90;999.90;;;;;;;;;;5059720;28;20045;-86
2023/11/30 01:05:26;;;;;;;1999.90;999.90;;;;;;;;;;5056584;28;20076;-87
2023/11/30 01:07:52;;;;;;;1999.90;999.90;;;;;;;;;;5059688;28;20041;-86
2023/11/30 01:10:21;;;;;;;1999.90;999.90;;;;;;;;;;5059509;28;20049;-87
2023/11/30 01:12:47;;;;;;;1999.90;999.90;;;;;;;;;;5063659;28;20052;-85
2023/11/30 01:15:14;;;;;;;1999.90;999.90;;;;;;;;;;5059499;28;20607;-86
2023/11/30 01:17:40;;;;;;;1999.90;999.90;;;;;;;;;;5060329;28;20408;-87
2023/11/30 01:20:08;;;;;;;1999.90;999.90;;;;;;;;;;5061848;28;20394;-85
2023/11/30 01:22:35;;;;;;;1999.90;999.90;;;;;;;;;;5064195;28;20041;-86
2023/11/30 01:25:01;;;;;;;1999.90;999.90;;;;;;;;;;5063005;28;20091;-87
2023/11/30 01:27:29;;;;;;;1999.90;999.90;;;;;;;;;;5062471;28;20155;-86
2023/11/30 01:29:56;;;;;;;1999.90;999.90;;;;;;;;;;5065144;28;20045;-85
2023/11/30 01:32:22;;;;;;;1999.90;999.90;;;;;;;;;;5058304;28;20528;-87
2023/11/30 01:34:49;;;;;;;1999.90;999.90;;;;;;;;;;5061667;28;20749;-85
2023/11/30 01:37:15;;;;;;;1999.90;999.90;;;;;;;;;;5063795;28;20049;-86
2023/11/30 01:39:42;;;;;;;1999.90;999.90;;;;;;;;;;5059172;28;20314;-85
2023/11/30 01:42:08;;;;;;;1999.90;999.90;;;;;;;;;;5057641;28;20053;-86
2023/11/30 01:44:36;;;;;;;1999.90;999.90;;;;;;;;;;5058302;28;20045;-86
2023/11/30 01:47:04;;;;;;;1999.90;999.90;;;;;;;;;;5058990;28;20508;-88
2023/11/30 01:49:30;;;;;;;1999.90;999.90;;;;;;;;;;5059521;28;20560;-86
2023/11/30 01:51:57;;;;;;;1999.90;999.90;;;;;;;;;;5061775;28;20053;-86
2023/11/30 01:54:23;;;;;;;1999.90;999.90;;;;;;;;;;5057117;28;20056;-86
2023/11/30 01:56:50;;;;;;;1999.90;999.90;;;;;;;;;;5061546;28;20067;-87
2023/11/30 01:59:16;;;;;;;1999.90;999.90;;;;;;;;;;5063564;28;20045;-85
2023/11/30 02:01:44;;;;;;;1999.90;999.90;;;;;;;;;;5061375;28;20056;-86
2023/11/30 02:04:12;;;;;;;1999.90;999.90;;;;;;;;;;5060540;28;20048;-85
2023/11/30 02:06:39;;;;;;;1999.90;999.90;;;;;;;;;;5062554;28;20048;-85
2023/11/30 02:09:06;;;;;;;1999.90;999.90;;;;;;;;;;5059966;28;20048;-85
2023/11/30 02:11:33;;;;;;;1999.90;999.90;;;;;;;;;;5056797;28;20172;-85
2023/11/30 02:13:59;;;;;;;1999.90;999.90;;;;;;;;;;5059115;28;20051;-85
2023/11/30 02:16:26;;;;;;;1999.90;999.90;;;;;;;;;;5061562;28;20055;-86
2023/11/30 02:18:54;;;;;;;1999.90;999.90;;;;;;;;;;5058012;28;20055;-87
2023/11/30 02:21:20;;;;;;;1999.90;999.90;;;;;;;;;;5062175;28;20083;-86
2023/11/30 02:23:49;;;;;;;1999.90;999.90;;;;;;;;;;5059026;28;20037;-86
2023/11/30 02:26:17;;;;;;;1999.90;999.90;;;;;;;;;;5062192;28;20410;-86
2023/11/30 02:28:44;;;;;;;1999.90;999.90;;;;;;;;;;5058194;28;20056;-86
2023/11/30 02:31:10;;;;;;;1999.90;999.90;;;;;;;;;;5057946;28;20508;-87
2023/11/30 02:33:37;;;;;;;1999.90;999.90;;;;;;;;;;5059122;28;20482;-86
2023/11/30 02:36:04;;;;;;;1999.90;999.90;;;;;;;;;;5060484;28;20060;-87
2023/11/30 02:38:31;;;;;;;1999.90;999.90;;;;;;;;;;5060962;28;20394;-87
2023/11/30 02:41:04;;;;;;;1999.90;999.90;;;;;;;;;;5059874;28;20045;-86
2023/11/30 02:43:30;;;;;;;1999.90;999.90;;;;;;;;;;5059432;28;20067;-86
2023/11/30 02:45:57;;;;;;;1999.90;999.90;;;;;;;;;;5058777;28;20041;-87
2023/11/30 02:48:23;;;;;;;1999.90;999.90;;;;;;;;;;5062435;28;20425;-87
2023/11/30 02:50:50;;;;;;;1999.90;999.90;;;;;;;;;;5061001;28;20053;-86
2023/11/30 02:53:16;;;;;;;1999.90;999.90;;;;;;;;;;5061021;28;20516;-86
2023/11/30 02:55:43;;;;;;;1999.90;999.90;;;;;;;;;;5057625;28;20045;-86
2023/11/30 02:58:11;;;;;;;1999.90;999.90;;;;;;;;;;5061725;28;20059;-86
2023/11/30 03:00:37;;;;;;;1999.90;999.90;;;;;;;;;;5063235;28;20053;-86
2023/11/30 03:03:04;;;;;;;1999.90;999.90;;;;;;;;;;5062882;28;20064;-86
2023/11/30 03:05:32;;;;;;;1999.90;999.90;;;;;;;;;;5062254;28;20398;-86
2023/11/30 03:07:58;;;;;;;1999.90;999.90;;;;;;;;;;5058553;28;20059;-86
2023/11/30 03:10:25;;;;;;;1999.90;999.90;;;;;;;;;;5062506;28;20049;-86
2023/11/30 03:12:51;;;;;;;1999.90;999.90;;;;;;;;;;5056238;28;20045;-87
2023/11/30 03:15:22;;;;;;;1999.90;999.90;;;;;;;;;;5056866;28;20056;-87
2023/11/30 03:17:48;;;;;;;1999.90;999.90;;;;;;;;;;5059661;28;20583;-87
2023/11/30 03:20:15;;;;;;;1999.90;999.90;;;;;;;;;;5061877;28;20056;-87
2023/11/30 03:22:41;;;;;;;1999.90;999.90;;;;;;;;;;5059369;28;20045;-87
2023/11/30 03:25:09;;;;;;;1999.90;999.90;;;;;;;;;;5062339;28;20048;-86
2023/11/30 03:27:35;;;;;;;1999.90;999.90;;;;;;;;;;5065847;28;20049;-86
2023/11/30 03:30:02;;;;;;;1999.90;999.90;;;;;;;;;;5060501;28;20044;-88
2023/11/30 03:32:30;;;;;;;1999.90;999.90;;;;;;;;;;5063445;28;20051;-87
2023/11/30 03:34:56;;;;;;;1999.90;999.90;;;;;;;;;;5062556;28;20056;-87
2023/11/30 03:37:23;;;;;;;1999.90;999.90;;;;;;;;;;5060259;28;20040;-86
2023/11/30 03:39:49;;;;;;;1999.90;999.90;;;;;;;;;;5062450;28;20049;-87
2023/11/30 03:42:16;;;;;;;1999.90;999.90;;;;;;;;;;5062127;28;20037;-87
2023/11/30 03:44:42;;;;;;;1999.90;999.90;;;;;;;;;;5061982;28;20050;-87
2023/11/30 03:47:09;;;;;;;1999.90;999.90;;;;;;;;;;5055307;28;20047;-87
2023/11/30 03:49:37;;;;;;;1999.90;999.90;;;;;;;;;;5059278;28;20060;-87
2023/11/30 03:52:03;;;;;;;1999.90;999.90;;;;;;;;;;5059608;28;20041;-86
2023/11/30 03:54:30;;;;;;;1999.90;999.90;;;;;;;;;;5056665;28;20048;-87
2023/11/30 03:56:56;;;;;;;1999.90;999.90;;;;;;;;;;5059101;28;20045;-87
2023/11/30 03:59:23;;;;;;;1999.90;999.90;;;;;;;;;;5059032;28;20048;-87
2023/11/30 04:01:49;;;;;;;1999.90;999.90;;;;;;;;;;5058569;28;20076;-87
2023/11/30 04:04:16;;;;;;;1999.90;999.90;;;;;;;;;;5056306;28;20497;-87
2023/11/30 04:06:44;;;;;;;1999.90;999.90;;;;;;;;;;5058759;28;20041;-88
2023/11/30 04:09:10;;;;;;;1999.90;999.90;;;;;;;;;;5061424;28;20093;-88
2023/11/30 04:11:37;;;;;;;1999.90;999.90;;;;;;;;;;5062181;28;20528;-87
2023/11/30 04:14:05;;;;;;;1999.90;999.90;;;;;;;;;;5059796;28;20143;-87
2023/11/30 04:16:33;;;;;;;1999.90;999.90;;;;;;;;;;5061917;28;20402;-88
2023/11/30 04:18:59;;;;;;;1999.90;999.90;;;;;;;;;;5055489;28;20079;-87
2023/11/30 04:21:26;;;;;;;1999.90;999.90;;;;;;;;;;5059272;28;20045;-88
2023/11/30 04:23:54;;;;;;;1999.90;999.90;;;;;;;;;;5071893;28;20056;-88
2023/11/30 04:26:20;;;;;;;1999.90;999.90;;;;;;;;;;5076677;28;20037;-87
2023/11/30 04:28:47;;;;;;;1999.90;999.90;;;;;;;;;;5063654;28;20128;-88
2023/11/30 04:31:13;;;;;;;1999.90;999.90;;;;;;;;;;5057939;28;20391;-89
2023/11/30 04:33:40;;;;;;;1999.90;999.90;;;;;;;;;;5058528;28;20063;-87
2023/11/30 04:36:07;;;;;;;1999.90;999.90;;;;;;;;;;5052921;28;20399;-88
2023/11/30 04:38:33;;;;;;;1999.90;999.90;;;;;;;;;;5056038;28;20432;-87
2023/11/30 04:41:01;;;;;;;1999.90;999.90;;;;;;;;;;5060626;28;20049;-87
2023/11/30 04:43:28;;;;;;;1999.90;999.90;;;;;;;;;;5063275;28;20060;-87
2023/11/30 04:45:54;;;;;;;1999.90;999.90;;;;;;;;;;5062618;28;20045;-88
2023/11/30 04:48:21;;;;;;;1999.90;999.90;;;;;;;;;;5058986;28;20425;-87
2023/11/30 04:50:47;;;;;;;1999.90;999.90;;;;;;;;;;5057682;28;20048;-87
2023/11/30 04:53:14;;;;;;;1999.90;999.90;;;;;;;;;;5063612;28;20420;-87
2023/11/30 04:55:40;;;;;;;1999.90;999.90;;;;;;;;;;5062672;28;20148;-88
2023/11/30 04:58:08;;;;;;;1999.90;999.90;;;;;;;;;;5064939;28;20045;-87
2023/11/30 05:00:34;;;;;;;1999.90;999.90;;;;;;;;;;5062588;28;20044;-87
2023/11/30 05:03:01;;;;;;;1999.90;999.90;;;;;;;;;;5066838;28;20033;-88
2023/11/30 05:05:27;;;;;;;1999.90;999.90;;;;;;;;;;5060586;28;20048;-87
2023/11/30 05:07:54;;;;;;;1999.90;999.90;;;;;;;;;;5060103;28;20382;-87
2023/11/30 05:10:20;;;;;;;1999.90;999.90;;;;;;;;;;5063447;28;20063;-87
2023/11/30 05:12:47;;;;;;;1999.90;999.90;;;;;;;;;;5063291;28;20040;-88
2023/11/30 05:15:15;;;;;;;1999.90;999.90;;;;;;;;;;5063030;28;20067;-87
2023/11/30 05:17:41;;;;;;;1999.90;999.90;;;;;;;;;;5059779;28;20044;-88
2023/11/30 05:20:09;;;;;;;1999.90;999.90;;;;;;;;;;5061744;28;20044;-87
2023/11/30 05:22:35;;;;;;;1999.90;999.90;;;;;;;;;;5062039;28;20410;-88
2023/11/30 05:25:02;;;;;;;1999.90;999.90;;;;;;;;;;5060314;28;20060;-87
2023/11/30 05:27:28;;;;;;;1999.90;999.90;;;;;;;;;;5059795;28;20056;-89
2023/11/30 05:29:55;;;;;;;1999.90;999.90;;;;;;;;;;5059317;28;20048;-88
2023/11/30 05:32:23;;;;;;;1999.90;999.90;;;;;;;;;;5061311;28;20061;-88
2023/11/30 05:34:51;;;;;;;1999.90;999.90;;;;;;;;;;5059974;28;20052;-89
2023/11/30 05:37:18;;;;;;;1999.90;999.90;;;;;;;;;;5060100;28;20051;-88
2023/11/30 05:39:44;;;;;;;1999.90;999.90;;;;;;;;;;5061633;28;20056;-88
2023/11/30 05:42:11;;;;;;;1999.90;999.90;;;;;;;;;;5054000;28;20512;-88
2023/11/30 05:44:37;;;;;;;1999.90;999.90;;;;;;;;;;5045266;28;20057;-88
2023/11/30 05:47:05;;;;;;;1999.90;999.90;;;;;;;;;;5065932;28;20071;-87
2023/11/30 05:49:33;;;;;;;1999.90;999.90;;;;;;;;;;5064401;28;20087;-88
2023/11/30 05:51:59;;;;;;;1999.90;999.90;;;;;;;;;;5064797;28;20033;-88
2023/11/30 05:54:26;;;;;;;1999.90;999.90;;;;;;;;;;5071774;28;20511;-88
2023/11/30 05:56:52;;;;;;;1999.90;999.90;;;;;;;;;;5060445;28;20605;-88
2023/11/30 05:59:19;;;;;;;1999.90;999.90;;;;;;;;;;5060396;28;20045;-88
2023/11/30 06:01:45;;;;;;;1999.90;999.90;;;;;;;;;;5064513;28;20045;-88
2023/11/30 06:04:12;;;;;;;1999.90;999.90;;;;;;;;;;5064782;28;20049;-88
2023/11/30 06:06:41;;;;;;;1999.90;999.90;;;;;;;;;;5066232;28;20045;-88
2023/11/30 06:09:07;;;;;;;1999.90;999.90;;;;;;;;;;5062382;28;20056;-88
2023/11/30 06:11:35;;;;;;;1999.90;999.90;;;;;;;;;;5058105;28;20110;-88
2023/11/30 06:14:01;;;;;;;1999.90;999.90;;;;;;;;;;5066030;28;20473;-88
2023/11/30 06:16:28;;;;;;;1999.90;999.90;;;;;;;;;;5066602;28;20049;-88
2023/11/30 06:18:54;;;;;;;1999.90;999.90;;;;;;;;;;5061470;28;20055;-88
2023/11/30 06:21:20;;;;;;;1999.90;999.90;;;;;;;;;;5063957;28;20055;-88
2023/11/30 06:23:48;;;;;;;1999.90;999.90;;;;;;;;;;5063123;28;20052;-88
2023/11/30 06:26:15;;;;;;;1999.90;999.90;;;;;;;;;;5068433;28;20044;-88
2023/11/30 06:28:41;;;;;;;1999.90;999.90;;;;;;;;;;5059572;28;20053;-88
2023/11/30 06:31:08;;;;;;;1999.90;999.90;;;;;;;;;;5064846;28;20045;-89
2023/11/30 06:33:35;;;;;;;1999.90;999.90;;;;;;;;;;5056785;28;20064;-88
2023/11/30 06:36:03;;;;;;;1999.90;999.90;;;;;;;;;;5056524;28;20053;-88
2023/11/30 06:38:30;;;;;;;1999.90;999.90;;;;;;;;;;5060557;28;20072;-87
2023/11/30 06:40:58;;;;;;;1999.90;999.90;;;;;;;;;;5060741;28;20041;-88
2023/11/30 06:43:25;;;;;;;1999.90;999.90;;;;;;;;;;5048237;28;20457;-88
2023/11/30 06:45:52;;;;;;;1999.90;999.90;;;;;;;;;;5052357;28;20102;-88
2023/11/30 06:48:18;;;;;;;1999.90;999.90;;;;;;;;;;5062100;28;20049;-89
2023/11/30 06:50:45;;;;;;;1999.90;999.90;;;;;;;;;;5060249;28;20144;-88
2023/11/30 06:53:11;;;;;;;1999.90;999.90;;;;;;;;;;5061092;28;20045;-88
2023/11/30 06:55:38;;;;;;;1999.90;999.90;;;;;;;;;;5061351;28;20047;-89
2023/11/30 06:58:06;;;;;;;1999.90;999.90;;;;;;;;;;5062353;28;20402;-88
2023/11/30 07:00:32;;;;;;;1999.90;999.90;;;;;;;;;;5059276;28;20109;-89
2023/11/30 07:02:59;;;;;;;1999.90;999.90;;;;;;;;;;5061476;28;20045;-88
2023/11/30 07:05:25;;;;;;;1999.90;999.90;;;;;;;;;;5060979;28;20064;-88
2023/11/30 07:07:52;;;;;;;1999.90;999.90;;;;;;;;;;5063294;28;20045;-89
2023/11/30 07:10:18;;;;;;;1999.90;999.90;;;;;;;;;;5063943;28;20048;-88
2023/11/30 07:12:46;;;;;;;1999.90;999.90;;;;;;;;;;5063008;28;20049;-87
2023/11/30 07:15:14;;;;;;;1999.90;999.90;;;;;;;;;;5061504;28;20064;-88
2023/11/30 07:17:41;;;;;;;1999.90;999.90;;;;;;;;;;5059220;28;20033;-88
2023/11/30 07:20:08;;;;;;;1999.90;999.90;;;;;;;;;;5062868;28;20053;-88
2023/11/30 07:22:35;;;;;;;1999.90;999.90;;;;;;;;;;5058635;28;20052;-88
2023/11/30 07:25:02;;;;;;;1999.90;999.90;;;;;;;;;;5061866;28;20606;-88
2023/11/30 07:27:30;;;;;;;1999.90;999.90;;;;;;;;;;5061469;28;20094;-88
2023/11/30 07:29:56;;;;;;;1999.90;999.90;;;;;;;;;;5052898;28;20052;-88
2023/11/30 07:32:24;;;;;;;1999.90;999.90;;;;;;;;;;5055021;28;20041;-88
2023/11/30 07:34:51;;;;;;;1999.90;999.90;;;;;;;;;;5060733;28;20048;-89
2023/11/30 07:37:17;;;;;;;1999.90;999.90;;;;;;;;;;5052133;28;20041;-88
2023/11/30 07:39:44;;;;;;;1999.90;999.90;;;;;;;;;;5062073;28;20561;-88
2023/11/30 07:42:16;;;;;;;1999.90;999.90;;;;;;;;;;5054412;28;20051;-88
2023/11/30 07:44:42;;;;;;;1999.90;999.90;;;;;;;;;;5048098;28;20067;-89
2023/11/30 07:47:10;;;;;;;1999.90;999.90;;;;;;;;;;5060435;28;20538;-87
2023/11/30 07:49:38;;;;;;;1999.90;999.90;;;;;;;;;;5057734;28;20047;-88
2023/11/30 07:52:05;;;;;;;1999.90;999.90;;;;;;;;;;5060864;28;20058;-88
2023/11/30 07:54:31;;;;;;;1999.90;999.90;;;;;;;;;;5057957;28;20037;-88
2023/11/30 07:57:00;;;;;;;1999.90;999.90;;;;;;;;;;5060585;28;20412;-88
2023/11/30 07:59:26;;;;;;;1999.90;999.90;;;;;;;;;;5064594;28;20044;-88
2023/11/30 08:01:53;;;;;;;1999.90;999.90;;;;;;;;;;5057469;28;20048;-87
2023/11/30 08:04:19;;;;;;;1999.90;999.90;;;;;;;;;;5061113;28;20045;-88
2023/11/30 08:06:47;;;;;;;1999.90;999.90;;;;;;;;;;5061198;28;20041;-88
2023/11/30 08:09:14;;;;;;;1999.90;999.90;;;;;;;;;;5061379;28;20505;-88
2023/11/30 08:11:41;;;;;;;1999.90;999.90;;;;;;;;;;5063190;28;20171;-88
2023/11/30 08:14:08;;;;;;;1999.90;999.90;;;;;;;;;;5059494;28;20057;-88
2023/11/30 08:16:35;;;;;;;1999.90;999.90;;;;;;;;;;5060443;28;20051;-88
2023/11/30 08:19:02;;;;;;;1999.90;999.90;;;;;;;;;;5063974;28;20048;-87
2023/11/30 08:21:28;;;;;;;1999.90;999.90;;;;;;;;;;5058803;28;20045;-88
2023/11/30 08:23:56;;;;;;;1999.90;999.90;;;;;;;;;;5058662;28;20045;-89
2023/11/30 08:26:23;;;;;;;1999.90;999.90;;;;;;;;;;5059953;28;20048;-89
2023/11/30 08:28:50;;;;;;;1999.90;999.90;;;;;;;;;;5062775;28;20480;-88
2023/11/30 08:31:16;;;;;;;1999.90;999.90;;;;;;;;;;5059926;28;20071;-89
2023/11/30 08:33:44;;;;;;;1999.90;999.90;;;;;;;;;;5059477;28;20074;-89
2023/11/30 08:36:11;;;;;;;1999.90;999.90;;;;;;;;;;5054263;28;20045;-89
2023/11/30 08:38:38;;;;;;;1999.90;999.90;;;;;;;;;;5058545;28;20055;-90
2023/11/30 08:41:06;;;;;;;1999.90;999.90;;;;;;;;;;5058140;28;20063;-90
2023/11/30 08:43:33;;;;;;;1999.90;999.90;;;;;;;;;;5046988;28;20048;-90
2023/11/30 08:45:59;;;;;;;1999.90;999.90;;;;;;;;;;5060117;28;20051;-90
2023/11/30 08:48:26;;;;;;;1999.90;999.90;;;;;;;;;;5059125;28;20408;-89
2023/11/30 08:50:53;;;;;;;1999.90;999.90;;;;;;;;;;5057471;28;20051;-90
2023/11/30 08:53:20;;;;;;;1999.90;999.90;;;;;;;;;;5060763;28;20049;-89
2023/11/30 08:55:47;;;;;;;1999.90;999.90;;;;;;;;;;5058431;28;20048;-89
2023/11/30 08:58:16;;;;;;;1999.90;999.90;;;;;;;;;;5060743;28;20497;-90
2023/11/30 09:00:42;;;;;;;1999.90;999.90;;;;;;;;;;5062008;28;20059;-89
2023/11/30 09:03:09;;;;;;;1999.90;999.90;;;;;;;;;;5047642;28;20052;-89
2023/11/30 09:05:35;;;;;;;1999.90;999.90;;;;;;;;;;5057497;28;20045;-90
2023/11/30 09:08:02;;;;;;;1999.90;999.90;;;;;;;;;;5058351;28;20044;-89
2023/11/30 09:10:29;;;;;;;1999.90;999.90;;;;;;;;;;5060912;28;20055;-90
2023/11/30 09:12:56;;;;;;;1999.90;999.90;;;;;;;;;;5059580;28;20049;-90
2023/11/30 09:15:24;;;;;;;1999.90;999.90;;;;;;;;;;5057865;28;20059;-91
2023/11/30 09:17:50;;;;;;;1999.90;999.90;;;;;;;;;;5057852;28;20045;-90
2023/11/30 09:20:19;;;;;;;1999.90;999.90;;;;;;;;;;5061079;28;20053;-91
2023/11/30 09:22:46;;;;;;;1999.90;999.90;;;;;;;;;;5059662;28;20041;-91
2023/11/30 09:25:13;;;;;;;1999.90;999.90;;;;;;;;;;5057718;28;20045;-89
2023/11/30 09:27:39;;;;;;;1999.90;999.90;;;;;;;;;;5061428;28;20553;-90
2023/11/30 09:30:07;;;;;;;1999.90;999.90;;;;;;;;;;5069913;28;20059;-90
2023/11/30 09:32:36;;;;;;;1999.90;999.90;;;;;;;;;;5071134;28;20078;-88
2023/11/30 09:35:03;;;;;;;1999.90;999.90;;;;;;;;;;5084150;28;20055;-89
2023/11/30 09:37:30;;;;;;;1999.90;999.90;;;;;;;;;;5065200;28;20057;-90
2023/11/30 09:39:56;;;;;;;1999.90;999.90;;;;;;;;;;5055285;28;20049;-91
2023/11/30 09:42:26;;;;;;;1999.90;999.90;;;;;;;;;;5054327;28;20054;-90
2023/11/30 09:44:53;;;;;;;1999.90;999.90;;;;;;;;;;5049143;28;20057;-89
2023/11/30 09:47:21;;;;;;;1999.90;999.90;;;;;;;;;;5060270;28;20059;-90
2023/11/30 09:49:49;;;;;;;1999.90;999.90;;;;;;;;;;5076633;28;20079;-90
2023/11/30 09:52:15;;;;;;;1999.90;999.90;;;;;;;;;;5078361;28;20413;-90
2023/11/30 09:54:42;;;;;;;1999.90;999.90;;;;;;;;;;5081743;28;20044;-89
2023/11/30 09:57:08;;;;;;;1999.90;999.90;;;;;;;;;;5084130;28;20051;-90
2023/11/30 09:59:35;;;;;;;1999.90;999.90;;;;;;;;;;5073939;28;20540;-90
2023/11/30 10:02:02;;;;;;;1999.90;999.90;;;;;;;;;;5062523;28;20058;-91
2023/11/30 10:04:29;;;;;;;1999.90;999.90;;;;;;;;;;5060868;28;20041;-90
2023/11/30 10:06:57;;;;;;;1999.90;999.90;;;;;;;;;;5060723;28;20052;-91
2023/11/30 10:09:24;;;;;;;1999.90;999.90;;;;;;;;;;5068317;28;20076;-90
2023/11/30 10:11:52;;;;;;;1999.90;999.90;;;;;;;;;;5065084;28;20400;-90
2023/11/30 10:14:18;;;;;;;1999.90;999.90;;;;;;;;;;5062032;28;20467;-90
2023/11/30 10:16:45;;;;;;;1999.90;999.90;;;;;;;;;;5063803;28;20054;-89
2023/11/30 10:19:13;;;;;;;1999.90;999.90;;;;;;;;;;5062026;28;20052;-90
2023/11/30 10:21:40;;;;;;;1999.90;999.90;;;;;;;;;;5062709;28;20113;-89
2023/11/30 10:24:08;;;;;;;1999.90;999.90;;;;;;;;;;5061078;28;20053;-89
2023/11/30 10:26:37;;;;;;;1999.90;999.90;;;;;;;;;;5061753;28;20453;-88
2023/11/30 10:29:04;;;;;;;1999.90;999.90;;;;;;;;;;5059683;28;20036;-87
2023/11/30 10:31:35;;;;;;;1999.90;999.90;;;;;;;;;;5057151;28;20045;-87
2023/11/30 10:34:07;;;;;;;1999.90;999.90;;;;;;;;;;5053560;28;20212;-88
2023/11/30 10:36:34;;;;;;;1999.90;999.90;;;;;;;;;;5062214;28;20052;-87
2023/11/30 10:39:03;;;;;;;1999.90;999.90;;;;;;;;;;5056590;28;20076;-88
2023/11/30 10:41:46;;;;;;;1999.90;999.90;;;;;;;;;;5052527;28;20114;-87
2023/11/30 10:44:14;;;;;;;1999.90;999.90;;;;;;;;;;5058004;28;20059;-87
2023/11/30 10:46:42;;;;;;;1999.90;999.90;;;;;;;;;;5051500;28;20044;-87
2023/11/30 10:49:09;;;;;;;1999.90;999.90;;;;;;;;;;5053912;28;20102;-87
2023/11/30 10:51:37;;;;;;;1999.90;999.90;;;;;;;;;;5060921;28;20129;-87
2023/11/30 10:54:07;;;;;;;1999.90;999.90;;;;;;;;;;5061169;28;20058;-87
2023/11/30 10:56:35;;;;;;;1999.90;999.90;;;;;;;;;;5057748;28;20055;-87
2023/11/30 10:59:03;;;;;;;1999.90;999.90;;;;;;;;;;5058911;28;20072;-87
2023/11/30 11:01:35;;;;;;;1999.90;999.90;;;;;;;;;;5061542;28;20059;-88
2023/11/30 11:04:02;;;;;;;1999.90;999.90;;;;;;;;;;5057912;28;20147;-87
2023/11/30 11:06:29;;;;;;;1999.90;999.90;;;;;;;;;;5062391;28;20123;-88
2023/11/30 11:09:03;;;;;;;1999.90;999.90;;;;;;;;;;5055914;28;20072;-87
2023/11/30 11:11:30;;;;;;;1999.90;999.90;;;;;;;;;;5057845;28;20056;-89
2023/11/30 11:13:57;;;;;;;1999.90;999.90;;;;;;;;;;5058833;28;20048;-87
2023/11/30 11:16:35;;;;;;;1999.90;999.90;;;;;;;;;;5060669;28;20077;-87
2023/11/30 11:19:03;;;;;;;1999.90;999.90;;;;;;;;;;5060285;28;20079;-88
2023/11/30 11:21:36;;;;;;;1999.90;999.90;;;;;;;;;;5063276;28;20052;-86
2023/11/30 11:24:03;;;;;;;1999.90;999.90;;;;;;;;;;5063479;28;20049;-86
2023/11/30 11:26:40;;;;;;;1999.90;999.90;;;;;;;;;;5061828;28;20056;-88
2023/11/30 11:29:06;;;;;;;1999.90;999.90;;;;;;;;;;5053435;28;20057;-87
2023/11/30 11:31:35;;;;;;;1999.90;999.90;;;;;;;;;;5053661;28;20136;-86
2023/11/30 11:34:02;;;;;;;1999.90;999.90;;;;;;;;;;5056950;28;20082;-87
2023/11/30 11:36:29;;;;;;;1999.90;999.90;;;;;;;;;;5049928;28;20052;-87
2023/11/30 11:38:56;;;;;;;1999.90;999.90;;;;;;;;;;5061478;28;20508;-86
2023/11/30 11:41:23;;;;;;;1999.90;999.90;;;;;;;;;;5055961;28;20055;-88
2023/11/30 11:43:51;;;;;;;1999.90;999.90;;;;;;;;;;5048887;28;20068;-86
2023/11/30 11:46:18;;;;;;;1999.90;999.90;;;;;;;;;;5045667;28;20457;-87
2023/11/30 11:48:46;;;;;;;1999.90;999.90;;;;;;;;;;5057502;28;20065;-87
2023/11/30 11:51:13;;;;;;;1999.90;999.90;;;;;;;;;;5056747;28;20044;-88
2023/11/30 11:53:40;;;;;;;1999.90;999.90;;;;;;;;;;5057734;28;20045;-89
2023/11/30 11:56:09;;;;;;;1999.90;999.90;;;;;;;;;;5060574;28;20040;-89
2023/11/30 11:58:36;;;;;;;1999.90;999.90;;;;;;;;;;5057616;28;20414;-88
2023/11/30 12:01:02;;;;;;;1999.90;999.90;;;;;;;;;;5059430;28;20047;-88
2023/11/30 12:03:29;;;;;;;1999.90;999.90;;;;;;;;;;5060446;28;20045;-89
2023/11/30 12:05:59;;;;;;;1999.90;999.90;;;;;;;;;;5057163;28;20060;-87
2023/11/30 12:08:30;;;;;;;1999.90;999.90;;;;;;;;;;5061839;28;20049;-88
2023/11/30 12:10:57;;;;;;;1999.90;999.90;;;;;;;;;;5061105;28;20052;-87
2023/11/30 12:13:26;;;;;;;1999.90;999.90;;;;;;;;;;5061502;28;20059;-88
2023/11/30 12:15:53;;;;;;;1999.90;999.90;;;;;;;;;;5062831;28;20512;-87
2023/11/30 12:18:20;;;;;;;1999.90;999.90;;;;;;;;;;5055636;28;20051;-88
2023/11/30 12:20:47;;;;;;;1999.90;999.90;;;;;;;;;;5063383;28;20049;-87
2023/11/30 12:23:15;;;;;;;1999.90;999.90;;;;;;;;;;5065594;28;20521;-90
2023/11/30 12:25:43;;;;;;;1999.90;999.90;;;;;;;;;;5071907;28;20078;-89
2023/11/30 12:28:11;;;;;;;1999.90;999.90;;;;;;;;;;5059901;28;20045;-88
2023/11/30 12:30:38;;;;;;;1999.90;999.90;;;;;;;;;;5062568;28;20049;-88
2023/11/30 12:33:05;;;;;;;1999.90;999.90;;;;;;;;;;5061244;28;20083;-88
2023/11/30 12:35:32;;;;;;;1999.90;999.90;;;;;;;;;;5061624;28;20091;-89
2023/11/30 12:37:58;;;;;;;1999.90;999.90;;;;;;;;;;5049582;28;20045;-89
2023/11/30 12:40:26;;;;;;;1999.90;999.90;;;;;;;;;;5055498;28;20048;-90
2023/11/30 12:42:53;;;;;;;1999.90;999.90;;;;;;;;;;5051575;28;20045;-88
2023/11/30 12:45:19;;;;;;;1999.90;999.90;;;;;;;;;;5046262;28;20492;-89
2023/11/30 12:47:46;;;;;;;1999.90;999.90;;;;;;;;;;5055916;28;20405;-89
2023/11/30 12:50:15;;;;;;;1999.90;999.90;;;;;;;;;;5062151;28;20036;-89
2023/11/30 12:52:42;;;;;;;1999.90;999.90;;;;;;;;;;5058628;28;20151;-90
2023/11/30 12:55:09;;;;;;;1999.90;999.90;;;;;;;;;;5057720;28;20053;-90
2023/11/30 12:57:38;;;;;;;1999.90;999.90;;;;;;;;;;5059281;28;20044;-90
2023/11/30 13:00:13;;;;;;;1999.90;999.90;;;;;;;;;;5055279;28;20095;-89
2023/11/30 13:02:43;;;;;;;1999.90;999.90;;;;;;;;;;5059001;28;20072;-91
2023/11/30 13:05:10;;;;;;;1999.90;999.90;;;;;;;;;;5064377;28;20087;-90
2023/11/30 13:07:39;;;;;;;1999.90;999.90;;;;;;;;;;5062757;28;20497;-89
2023/11/30 13:10:10;;;;;;;1999.90;999.90;;;;;;;;;;5064438;28;20053;-89
2023/11/30 13:12:38;;;;;;;1999.90;999.90;;;;;;;;;;5061004;28;20080;-89
2023/11/30 13:15:06;;;;;;;1999.90;999.90;;;;;;;;;;5062278;28;20152;-90
2023/11/30 13:17:34;;;;;;;1999.90;999.90;;;;;;;;;;5064608;28;20449;-91
2023/11/30 13:20:00;;;;;;;1999.90;999.90;;;;;;;;;;5063505;28;20136;-90
2023/11/30 13:22:27;;;;;;;1999.90;999.90;;;;;;;;;;5062555;28;20060;-90
2023/11/30 13:24:53;;;;;;;1999.90;999.90;;;;;;;;;;5062110;28;20099;-91
2023/11/30 13:27:21;;;;;;;1999.90;999.90;;;;;;;;;;5063947;28;20045;-91
2023/11/30 13:29:49;;;;;;;1999.90;999.90;;;;;;;;;;5061673;28;20053;-90
2023/11/30 13:32:15;;;;;;;1999.90;999.90;;;;;;;;;;5062294;28;20064;-89
2023/11/30 13:34:42;;;;;;;1999.90;999.90;;;;;;;;;;5061641;28;20072;-90
2023/11/30 13:37:12;;;;;;;1999.90;999.90;;;;;;;;;;5060806;28;20056;-88
2023/11/30 13:39:38;;;;;;;1999.90;999.90;;;;;;;;;;5061715;28;20052;-88
2023/11/30 13:42:05;;;;;;;1999.90;999.90;;;;;;;;;;5052814;28;20052;-89